sensor_id;sensor_type;location;lat;lon;timestamp;P1;durP1;ratioP1;P2;durP2;ratioP2
54983;SDS011;40884;53.562;9.940;2023-10-31T00:00:48;12.00;;;9.63;;
54983;SDS011;40884;53.562;9.940;2023-10-31T00:01:48;11.10;;;8.83;;
54983;SDS011;40884;53.562;9.940;2023-10-31T00:02:48;10.80;;;9.03;;
54983;SDS011;40884;53.562;9.940;2023-10-31T00:03:49;10.77;;;8.87;;
54983;SDS011;40884;53.562;9.940;2023-10-31T00:04:49;11.20;;;9.53;;
54983;SDS011;40884;53.562;9.940;2023-10-31T00:05:49;12.10;;;10.40;;
54983;SDS011;40884;53.562;9.940;2023-10-31T00:06:49;10.57;;;9.43;;
54983;SDS011;40884;53.562;9.940;2023-10-31T00:07:49;11.73;;;9.97;;
54983;SDS011;40884;53.562;9.940;2023-10-31T00:08:49;12.60;;;10.53;;
54983;SDS011;40884;53.562;9.940;2023-10-31T00:09:49;12.30;;;9.97;;
54983;SDS011;40884;53.562;9.940;2023-10-31T00:10:50;12.17;;;9.90;;
54983;SDS011;40884;53.562;9.940;2023-10-31T00:11:50;10.53;;;8.37;;
54983;SDS011;40884;53.562;9.940;2023-10-31T00:12:50;11.53;;;10.23;;
54983;SDS011;40884;53.562;9.940;2023-10-31T00:13:50;12.77;;;10.47;;
54983;SDS011;40884;53.562;9.940;2023-10-31T00:14:50;10.93;;;9.60;;
54983;SDS011;40884;53.562;9.940;2023-10-31T00:15:50;12.00;;;10.10;;
54983;SDS011;40884;53.562;9.940;2023-10-31T00:16:50;11.10;;;9.27;;
54983;SDS011;40884;53.562;9.940;2023-10-31T00:17:50;12.57;;;9.57;;
54983;SDS011;40884;53.562;9.940;2023-10-31T00:18:51;12.33;;;9.90;;
54983;SDS011;40884;53.562;9.940;2023-10-31T00:19:51;11.63;;;9.80;;
54983;SDS011;40884;53.562;9.940;2023-10-31T00:20:51;10.70;;;9.00;;
54983;SDS011;40884;53.562;9.940;2023-10-31T00:21:51;10.40;;;9.17;;
54983;SDS011;40884;53.562;9.940;2023-10-31T00:22:51;11.63;;;9.70;;
54983;SDS011;40884;53.562;9.940;2023-10-31T00:23:51;15.10;;;11.40;;
54983;SDS011;40884;53.562;9.940;2023-10-31T00:24:51;15.90;;;11.17;;
54983;SDS011;40884;53.562;9.940;2023-10-31T00:25:51;14.50;;;10.70;;
54983;SDS011;40884;53.562;9.940;2023-10-31T00:26:51;13.27;;;9.73;;
54983;SDS011;40884;53.562;9.940;2023-10-31T00:27:52;11.27;;;9.23;;
54983;SDS011;40884;53.562;9.940;2023-10-31T00:28:52;14.57;;;9.40;;
54983;SDS011;40884;53.562;9.940;2023-10-31T00:29:52;12.83;;;9.83;;
54983;SDS011;40884;53.562;9.940;2023-10-31T00:30:52;13.47;;;9.50;;
54983;SDS011;40884;53.562;9.940;2023-10-31T00:31:52;8.33;;;7.10;;
54983;SDS011;40884;53.562;9.940;2023-10-31T00:32:52;12.87;;;8.07;;
54983;SDS011;40884;53.562;9.940;2023-10-31T00:33:52;11.03;;;8.10;;
54983;SDS011;40884;53.562;9.940;2023-10-31T00:34:52;12.17;;;8.53;;
54983;SDS011;40884;53.562;9.940;2023-10-31T00:35:54;11.03;;;8.40;;
54983;SDS011;40884;53.562;9.940;2023-10-31T00:36:54;14.03;;;8.20;;
54983;SDS011;40884;53.562;9.940;2023-10-31T00:37:54;9.67;;;7.93;;
54983;SDS011;40884;53.562;9.940;2023-10-31T00:38:54;8.20;;;7.30;;
54983;SDS011;40884;53.562;9.940;2023-10-31T00:39:54;12.20;;;7.90;;
54983;SDS011;40884;53.562;9.940;2023-10-31T00:40:54;11.40;;;8.10;;
54983;SDS011;40884;53.562;9.940;2023-10-31T00:41:54;8.87;;;6.40;;
54983;SDS011;40884;53.562;9.940;2023-10-31T00:42:54;10.57;;;7.17;;
54983;SDS011;40884;53.562;9.940;2023-10-31T00:43:55;7.83;;;7.03;;
54983;SDS011;40884;53.562;9.940;2023-10-31T00:44:55;8.00;;;7.20;;
54983;SDS011;40884;53.562;9.940;2023-10-31T00:45:55;10.37;;;7.47;;
54983;SDS011;40884;53.562;9.940;2023-10-31T00:46:55;9.83;;;7.90;;
54983;SDS011;40884;53.562;9.940;2023-10-31T00:47:55;12.30;;;7.73;;
54983;SDS011;40884;53.562;9.940;2023-10-31T00:48:55;9.23;;;7.50;;
54983;SDS011;40884;53.562;9.940;2023-10-31T00:49:56;10.63;;;7.77;;
54983;SDS011;40884;53.562;9.940;2023-10-31T00:50:58;9.90;;;7.97;;
54983;SDS011;40884;53.562;9.940;2023-10-31T00:51:58;10.57;;;8.07;;
54983;SDS011;40884;53.562;9.940;2023-10-31T00:52:58;10.93;;;8.40;;
54983;SDS011;40884;53.562;9.940;2023-10-31T00:53:58;11.27;;;8.37;;
54983;SDS011;40884;53.562;9.940;2023-10-31T00:54:58;9.63;;;7.73;;
54983;SDS011;40884;53.562;9.940;2023-10-31T00:55:58;10.87;;;7.80;;
54983;SDS011;40884;53.562;9.940;2023-10-31T00:56:58;9.27;;;6.97;;
54983;SDS011;40884;53.562;9.940;2023-10-31T00:57:59;9.30;;;8.27;;
54983;SDS011;40884;53.562;9.940;2023-10-31T00:58:59;12.33;;;8.53;;
54983;SDS011;40884;53.562;9.940;2023-10-31T00:59:59;11.30;;;9.83;;
54983;SDS011;40884;53.562;9.940;2023-10-31T01:00:59;11.73;;;8.57;;
54983;SDS011;40884;53.562;9.940;2023-10-31T01:01:59;10.53;;;9.07;;
54983;SDS011;40884;53.562;9.940;2023-10-31T01:02:59;11.93;;;8.90;;
54983;SDS011;40884;53.562;9.940;2023-10-31T01:03:59;14.87;;;10.47;;
54983;SDS011;40884;53.562;9.940;2023-10-31T01:05:00;13.40;;;9.00;;
54983;SDS011;40884;53.562;9.940;2023-10-31T01:06:00;12.07;;;9.87;;
54983;SDS011;40884;53.562;9.940;2023-10-31T01:07:00;13.17;;;10.27;;
54983;SDS011;40884;53.562;9.940;2023-10-31T01:08:00;13.70;;;10.33;;
54983;SDS011;40884;53.562;9.940;2023-10-31T01:09:00;13.13;;;10.40;;
54983;SDS011;40884;53.562;9.940;2023-10-31T01:10:01;10.50;;;8.80;;
54983;SDS011;40884;53.562;9.940;2023-10-31T01:11:01;11.40;;;9.93;;
54983;SDS011;40884;53.562;9.940;2023-10-31T01:12:01;11.13;;;9.83;;
54983;SDS011;40884;53.562;9.940;2023-10-31T01:13:01;13.47;;;9.33;;
54983;SDS011;40884;53.562;9.940;2023-10-31T01:14:02;11.67;;;10.20;;
54983;SDS011;40884;53.562;9.940;2023-10-31T01:15:03;10.83;;;9.70;;
54983;SDS011;40884;53.562;9.940;2023-10-31T01:16:03;11.93;;;9.03;;
54983;SDS011;40884;53.562;9.940;2023-10-31T01:17:03;13.57;;;10.17;;
54983;SDS011;40884;53.562;9.940;2023-10-31T01:18:03;10.97;;;9.87;;
54983;SDS011;40884;53.562;9.940;2023-10-31T01:19:03;11.10;;;8.20;;
54983;SDS011;40884;53.562;9.940;2023-10-31T01:20:04;10.57;;;8.30;;
54983;SDS011;40884;53.562;9.940;2023-10-31T01:21:05;12.73;;;9.07;;
54983;SDS011;40884;53.562;9.940;2023-10-31T01:22:05;11.97;;;9.70;;
54983;SDS011;40884;53.562;9.940;2023-10-31T01:23:05;12.57;;;10.50;;
54983;SDS011;40884;53.562;9.940;2023-10-31T01:24:05;11.87;;;9.17;;
54983;SDS011;40884;53.562;9.940;2023-10-31T01:25:05;11.90;;;9.87;;
54983;SDS011;40884;53.562;9.940;2023-10-31T01:26:06;11.33;;;9.70;;
54983;SDS011;40884;53.562;9.940;2023-10-31T01:27:06;12.53;;;9.83;;
54983;SDS011;40884;53.562;9.940;2023-10-31T01:28:06;14.40;;;10.03;;
54983;SDS011;40884;53.562;9.940;2023-10-31T01:29:06;14.87;;;9.80;;
54983;SDS011;40884;53.562;9.940;2023-10-31T01:30:06;11.63;;;9.33;;
54983;SDS011;40884;53.562;9.940;2023-10-31T01:31:07;11.33;;;9.50;;
54983;SDS011;40884;53.562;9.940;2023-10-31T01:32:07;9.63;;;8.60;;
54983;SDS011;40884;53.562;9.940;2023-10-31T01:33:07;9.27;;;8.30;;
54983;SDS011;40884;53.562;9.940;2023-10-31T01:34:07;13.30;;;9.70;;
54983;SDS011;40884;53.562;9.940;2023-10-31T01:35:07;14.80;;;9.97;;
54983;SDS011;40884;53.562;9.940;2023-10-31T01:36:08;11.23;;;9.57;;
54983;SDS011;40884;53.562;9.940;2023-10-31T01:37:08;12.40;;;9.83;;
54983;SDS011;40884;53.562;9.940;2023-10-31T01:38:08;11.60;;;9.47;;
54983;SDS011;40884;53.562;9.940;2023-10-31T01:39:08;11.67;;;9.73;;
54983;SDS011;40884;53.562;9.940;2023-10-31T01:40:11;11.40;;;9.57;;
54983;SDS011;40884;53.562;9.940;2023-10-31T01:41:12;11.10;;;9.50;;
54983;SDS011;40884;53.562;9.940;2023-10-31T01:42:15;12.90;;;9.70;;
54983;SDS011;40884;53.562;9.940;2023-10-31T01:43:28;10.03;;;9.00;;
54983;SDS011;40884;53.562;9.940;2023-10-31T01:44:28;12.17;;;9.30;;
54983;SDS011;40884;53.562;9.940;2023-10-31T01:45:28;11.03;;;9.60;;
54983;SDS011;40884;53.562;9.940;2023-10-31T01:46:29;13.20;;;9.17;;
54983;SDS011;40884;53.562;9.940;2023-10-31T01:47:30;12.47;;;9.37;;
54983;SDS011;40884;53.562;9.940;2023-10-31T01:48:32;10.90;;;9.80;;
54983;SDS011;40884;53.562;9.940;2023-10-31T01:49:32;12.80;;;7.33;;
54983;SDS011;40884;53.562;9.940;2023-10-31T01:50:32;12.20;;;10.03;;
54983;SDS011;40884;53.562;9.940;2023-10-31T01:51:32;12.50;;;9.40;;
54983;SDS011;40884;53.562;9.940;2023-10-31T01:52:33;11.90;;;9.50;;
54983;SDS011;40884;53.562;9.940;2023-10-31T01:53:33;12.10;;;9.77;;
54983;SDS011;40884;53.562;9.940;2023-10-31T01:54:33;10.97;;;9.77;;
54983;SDS011;40884;53.562;9.940;2023-10-31T01:55:34;11.00;;;9.30;;
54983;SDS011;40884;53.562;9.940;2023-10-31T01:56:35;12.10;;;8.80;;
54983;SDS011;40884;53.562;9.940;2023-10-31T01:57:35;10.77;;;8.70;;
54983;SDS011;40884;53.562;9.940;2023-10-31T01:58:36;9.47;;;8.47;;
54983;SDS011;40884;53.562;9.940;2023-10-31T01:59:36;9.40;;;8.30;;
54983;SDS011;40884;53.562;9.940;2023-10-31T02:00:37;12.37;;;8.33;;
54983;SDS011;40884;53.562;9.940;2023-10-31T02:01:38;13.13;;;9.17;;
54983;SDS011;40884;53.562;9.940;2023-10-31T02:02:40;11.53;;;9.10;;
54983;SDS011;40884;53.562;9.940;2023-10-31T02:03:40;10.57;;;8.83;;
54983;SDS011;40884;53.562;9.940;2023-10-31T02:04:40;9.80;;;8.80;;
54983;SDS011;40884;53.562;9.940;2023-10-31T02:05:40;10.40;;;8.53;;
54983;SDS011;40884;53.562;9.940;2023-10-31T02:06:41;10.33;;;8.73;;
54983;SDS011;40884;53.562;9.940;2023-10-31T02:07:41;12.13;;;9.00;;
54983;SDS011;40884;53.562;9.940;2023-10-31T02:08:46;11.03;;;8.47;;
54983;SDS011;40884;53.562;9.940;2023-10-31T02:09:47;13.33;;;10.30;;
54983;SDS011;40884;53.562;9.940;2023-10-31T02:10:47;16.17;;;10.90;;
54983;SDS011;40884;53.562;9.940;2023-10-31T02:11:47;15.97;;;10.43;;
54983;SDS011;40884;53.562;9.940;2023-10-31T02:12:47;15.37;;;11.07;;
54983;SDS011;40884;53.562;9.940;2023-10-31T02:13:47;17.00;;;10.87;;
54983;SDS011;40884;53.562;9.940;2023-10-31T02:14:47;12.10;;;9.70;;
54983;SDS011;40884;53.562;9.940;2023-10-31T02:15:47;11.23;;;9.20;;
54983;SDS011;40884;53.562;9.940;2023-10-31T02:16:48;16.03;;;8.87;;
54983;SDS011;40884;53.562;9.940;2023-10-31T02:17:48;12.63;;;8.73;;
54983;SDS011;40884;53.562;9.940;2023-10-31T02:18:48;11.67;;;9.33;;
54983;SDS011;40884;53.562;9.940;2023-10-31T02:19:48;12.10;;;10.17;;
54983;SDS011;40884;53.562;9.940;2023-10-31T02:20:48;11.47;;;9.30;;
54983;SDS011;40884;53.562;9.940;2023-10-31T02:21:48;11.13;;;9.67;;
54983;SDS011;40884;53.562;9.940;2023-10-31T02:22:48;12.87;;;10.33;;
54983;SDS011;40884;53.562;9.940;2023-10-31T02:24:03;15.17;;;10.87;;
54983;SDS011;40884;53.562;9.940;2023-10-31T02:25:15;16.53;;;11.00;;
54983;SDS011;40884;53.562;9.940;2023-10-31T02:26:15;14.47;;;10.67;;
54983;SDS011;40884;53.562;9.940;2023-10-31T02:27:15;16.43;;;11.70;;
54983;SDS011;40884;53.562;9.940;2023-10-31T02:28:15;16.03;;;11.33;;
54983;SDS011;40884;53.562;9.940;2023-10-31T02:29:18;14.73;;;11.40;;
54983;SDS011;40884;53.562;9.940;2023-10-31T02:30:18;17.83;;;11.93;;
54983;SDS011;40884;53.562;9.940;2023-10-31T02:31:19;12.17;;;10.13;;
54983;SDS011;40884;53.562;9.940;2023-10-31T02:32:19;12.43;;;10.00;;
54983;SDS011;40884;53.562;9.940;2023-10-31T02:33:19;13.70;;;10.77;;
54983;SDS011;40884;53.562;9.940;2023-10-31T02:34:19;15.33;;;11.03;;
54983;SDS011;40884;53.562;9.940;2023-10-31T02:35:20;14.40;;;9.80;;
54983;SDS011;40884;53.562;9.940;2023-10-31T02:36:20;15.10;;;9.93;;
54983;SDS011;40884;53.562;9.940;2023-10-31T02:37:20;14.90;;;10.80;;
54983;SDS011;40884;53.562;9.940;2023-10-31T02:38:20;14.80;;;10.77;;
54983;SDS011;40884;53.562;9.940;2023-10-31T02:39:21;17.60;;;11.60;;
54983;SDS011;40884;53.562;9.940;2023-10-31T02:40:21;13.20;;;10.63;;
54983;SDS011;40884;53.562;9.940;2023-10-31T02:41:21;12.20;;;9.43;;
54983;SDS011;40884;53.562;9.940;2023-10-31T02:42:21;15.87;;;10.97;;
54983;SDS011;40884;53.562;9.940;2023-10-31T02:43:21;16.97;;;11.50;;
54983;SDS011;40884;53.562;9.940;2023-10-31T02:44:21;16.70;;;11.50;;
54983;SDS011;40884;53.562;9.940;2023-10-31T02:45:21;16.37;;;11.43;;
54983;SDS011;40884;53.562;9.940;2023-10-31T02:46:21;19.63;;;11.90;;
54983;SDS011;40884;53.562;9.940;2023-10-31T02:47:22;18.33;;;12.27;;
54983;SDS011;40884;53.562;9.940;2023-10-31T02:48:22;17.63;;;10.93;;
54983;SDS011;40884;53.562;9.940;2023-10-31T02:49:22;15.87;;;11.13;;
54983;SDS011;40884;53.562;9.940;2023-10-31T02:50:22;16.47;;;11.13;;
54983;SDS011;40884;53.562;9.940;2023-10-31T02:51:23;13.30;;;10.67;;
54983;SDS011;40884;53.562;9.940;2023-10-31T02:52:23;14.60;;;10.00;;
54983;SDS011;40884;53.562;9.940;2023-10-31T02:53:23;13.70;;;9.50;;
54983;SDS011;40884;53.562;9.940;2023-10-31T02:54:23;10.83;;;8.83;;
54983;SDS011;40884;53.562;9.940;2023-10-31T02:55:23;11.50;;;9.40;;
54983;SDS011;40884;53.562;9.940;2023-10-31T02:56:23;12.33;;;9.40;;
54983;SDS011;40884;53.562;9.940;2023-10-31T02:57:23;12.77;;;8.80;;
54983;SDS011;40884;53.562;9.940;2023-10-31T02:58:24;16.10;;;9.30;;
54983;SDS011;40884;53.562;9.940;2023-10-31T02:59:24;16.13;;;9.73;;
54983;SDS011;40884;53.562;9.940;2023-10-31T03:00:24;14.60;;;9.90;;
54983;SDS011;40884;53.562;9.940;2023-10-31T03:01:27;13.77;;;9.20;;
54983;SDS011;40884;53.562;9.940;2023-10-31T03:02:27;11.30;;;7.87;;
54983;SDS011;40884;53.562;9.940;2023-10-31T03:03:27;10.67;;;8.57;;
54983;SDS011;40884;53.562;9.940;2023-10-31T03:04:28;11.43;;;8.43;;
54983;SDS011;40884;53.562;9.940;2023-10-31T03:05:28;12.00;;;8.50;;
54983;SDS011;40884;53.562;9.940;2023-10-31T03:06:28;13.30;;;9.47;;
54983;SDS011;40884;53.562;9.940;2023-10-31T03:07:28;11.57;;;8.87;;
54983;SDS011;40884;53.562;9.940;2023-10-31T03:08:28;11.63;;;9.00;;
54983;SDS011;40884;53.562;9.940;2023-10-31T03:09:28;13.23;;;9.37;;
54983;SDS011;40884;53.562;9.940;2023-10-31T03:10:28;13.33;;;9.43;;
54983;SDS011;40884;53.562;9.940;2023-10-31T03:11:29;9.60;;;8.60;;
54983;SDS011;40884;53.562;9.940;2023-10-31T03:12:30;13.50;;;9.40;;
54983;SDS011;40884;53.562;9.940;2023-10-31T03:13:30;10.13;;;8.97;;
54983;SDS011;40884;53.562;9.940;2023-10-31T03:14:30;19.00;;;11.33;;
54983;SDS011;40884;53.562;9.940;2023-10-31T03:15:30;15.83;;;11.13;;
54983;SDS011;40884;53.562;9.940;2023-10-31T03:16:31;12.87;;;9.87;;
54983;SDS011;40884;53.562;9.940;2023-10-31T03:17:31;16.00;;;10.23;;
54983;SDS011;40884;53.562;9.940;2023-10-31T03:18:32;15.20;;;10.20;;
54983;SDS011;40884;53.562;9.940;2023-10-31T03:19:32;12.93;;;9.93;;
54983;SDS011;40884;53.562;9.940;2023-10-31T03:20:32;14.77;;;10.17;;
54983;SDS011;40884;53.562;9.940;2023-10-31T03:21:33;12.80;;;10.07;;
54983;SDS011;40884;53.562;9.940;2023-10-31T03:22:33;12.10;;;9.60;;
54983;SDS011;40884;53.562;9.940;2023-10-31T03:23:34;14.37;;;10.50;;
54983;SDS011;40884;53.562;9.940;2023-10-31T03:24:34;14.53;;;9.63;;
54983;SDS011;40884;53.562;9.940;2023-10-31T03:25:34;13.97;;;10.00;;
54983;SDS011;40884;53.562;9.940;2023-10-31T03:26:34;12.60;;;10.40;;
54983;SDS011;40884;53.562;9.940;2023-10-31T03:27:34;13.27;;;9.67;;
54983;SDS011;40884;53.562;9.940;2023-10-31T03:28:35;15.80;;;10.10;;
54983;SDS011;40884;53.562;9.940;2023-10-31T03:29:35;12.27;;;9.93;;
54983;SDS011;40884;53.562;9.940;2023-10-31T03:30:35;16.33;;;11.50;;
54983;SDS011;40884;53.562;9.940;2023-10-31T03:31:35;16.77;;;11.63;;
54983;SDS011;40884;53.562;9.940;2023-10-31T03:32:35;15.10;;;10.67;;
54983;SDS011;40884;53.562;9.940;2023-10-31T03:33:35;17.23;;;11.87;;
54983;SDS011;40884;53.562;9.940;2023-10-31T03:34:35;14.63;;;11.20;;
54983;SDS011;40884;53.562;9.940;2023-10-31T03:35:36;17.03;;;11.17;;
54983;SDS011;40884;53.562;9.940;2023-10-31T03:36:36;16.10;;;10.80;;
54983;SDS011;40884;53.562;9.940;2023-10-31T03:37:36;12.87;;;10.30;;
54983;SDS011;40884;53.562;9.940;2023-10-31T03:38:36;12.97;;;9.47;;
54983;SDS011;40884;53.562;9.940;2023-10-31T03:39:37;12.20;;;9.73;;
54983;SDS011;40884;53.562;9.940;2023-10-31T03:40:37;14.67;;;9.57;;
54983;SDS011;40884;53.562;9.940;2023-10-31T03:41:37;13.23;;;9.03;;
54983;SDS011;40884;53.562;9.940;2023-10-31T03:42:37;9.83;;;8.83;;
54983;SDS011;40884;53.562;9.940;2023-10-31T03:43:37;10.17;;;8.73;;
54983;SDS011;40884;53.562;9.940;2023-10-31T03:44:38;10.07;;;8.70;;
54983;SDS011;40884;53.562;9.940;2023-10-31T03:45:38;10.20;;;8.77;;
54983;SDS011;40884;53.562;9.940;2023-10-31T03:46:38;13.23;;;8.67;;
54983;SDS011;40884;53.562;9.940;2023-10-31T03:47:38;12.30;;;8.87;;
54983;SDS011;40884;53.562;9.940;2023-10-31T03:48:38;11.87;;;8.87;;
54983;SDS011;40884;53.562;9.940;2023-10-31T03:49:41;13.73;;;9.53;;
54983;SDS011;40884;53.562;9.940;2023-10-31T03:50:41;10.37;;;8.90;;
54983;SDS011;40884;53.562;9.940;2023-10-31T03:51:41;10.27;;;9.13;;
54983;SDS011;40884;53.562;9.940;2023-10-31T03:52:41;10.63;;;8.87;;
54983;SDS011;40884;53.562;9.940;2023-10-31T03:53:41;9.20;;;8.07;;
54983;SDS011;40884;53.562;9.940;2023-10-31T03:54:41;9.57;;;8.57;;
54983;SDS011;40884;53.562;9.940;2023-10-31T03:55:42;12.20;;;8.57;;
54983;SDS011;40884;53.562;9.940;2023-10-31T03:56:43;9.27;;;8.33;;
54983;SDS011;40884;53.562;9.940;2023-10-31T03:57:43;11.47;;;8.20;;
54983;SDS011;40884;53.562;9.940;2023-10-31T03:58:43;8.53;;;7.60;;
54983;SDS011;40884;53.562;9.940;2023-10-31T03:59:43;9.53;;;8.37;;
54983;SDS011;40884;53.562;9.940;2023-10-31T04:00:43;10.40;;;8.40;;
54983;SDS011;40884;53.562;9.940;2023-10-31T04:01:44;10.93;;;8.40;;
54983;SDS011;40884;53.562;9.940;2023-10-31T04:02:44;11.70;;;8.67;;
54983;SDS011;40884;53.562;9.940;2023-10-31T04:03:44;11.70;;;8.37;;
54983;SDS011;40884;53.562;9.940;2023-10-31T04:04:44;8.27;;;7.40;;
54983;SDS011;40884;53.562;9.940;2023-10-31T04:05:44;9.03;;;6.50;;
54983;SDS011;40884;53.562;9.940;2023-10-31T04:06:44;7.30;;;6.53;;
54983;SDS011;40884;53.562;9.940;2023-10-31T04:07:47;6.33;;;5.73;;
54983;SDS011;40884;53.562;9.940;2023-10-31T04:08:47;10.33;;;7.20;;
54983;SDS011;40884;53.562;9.940;2023-10-31T04:09:47;10.13;;;6.97;;
54983;SDS011;40884;53.562;9.940;2023-10-31T04:10:47;8.97;;;7.57;;
54983;SDS011;40884;53.562;9.940;2023-10-31T04:11:47;9.83;;;6.30;;
54983;SDS011;40884;53.562;9.940;2023-10-31T04:12:48;8.00;;;7.20;;
54983;SDS011;40884;53.562;9.940;2023-10-31T04:13:48;9.27;;;7.60;;
54983;SDS011;40884;53.562;9.940;2023-10-31T04:14:48;9.37;;;6.93;;
54983;SDS011;40884;53.562;9.940;2023-10-31T04:15:48;10.60;;;7.93;;
54983;SDS011;40884;53.562;9.940;2023-10-31T04:16:48;7.70;;;6.57;;
54983;SDS011;40884;53.562;9.940;2023-10-31T04:17:48;8.10;;;6.80;;
54983;SDS011;40884;53.562;9.940;2023-10-31T04:18:48;11.23;;;6.87;;
54983;SDS011;40884;53.562;9.940;2023-10-31T04:19:48;8.27;;;7.43;;
54983;SDS011;40884;53.562;9.940;2023-10-31T04:20:49;8.67;;;6.50;;
54983;SDS011;40884;53.562;9.940;2023-10-31T04:21:49;8.73;;;6.67;;
54983;SDS011;40884;53.562;9.940;2023-10-31T04:22:49;8.13;;;6.90;;
54983;SDS011;40884;53.562;9.940;2023-10-31T04:23:49;8.13;;;6.50;;
54983;SDS011;40884;53.562;9.940;2023-10-31T04:24:49;8.17;;;6.40;;
54983;SDS011;40884;53.562;9.940;2023-10-31T04:25:49;9.27;;;6.47;;
54983;SDS011;40884;53.562;9.940;2023-10-31T04:26:49;7.73;;;6.70;;
54983;SDS011;40884;53.562;9.940;2023-10-31T04:27:50;8.70;;;7.63;;
54983;SDS011;40884;53.562;9.940;2023-10-31T04:28:50;8.57;;;6.60;;
54983;SDS011;40884;53.562;9.940;2023-10-31T04:29:50;7.63;;;6.87;;
54983;SDS011;40884;53.562;9.940;2023-10-31T04:30:50;7.40;;;6.60;;
54983;SDS011;40884;53.562;9.940;2023-10-31T04:31:50;8.13;;;7.13;;
54983;SDS011;40884;53.562;9.940;2023-10-31T04:32:50;6.80;;;6.10;;
54983;SDS011;40884;53.562;9.940;2023-10-31T04:33:50;7.57;;;6.77;;
54983;SDS011;40884;53.562;9.940;2023-10-31T04:34:50;9.27;;;7.07;;
54983;SDS011;40884;53.562;9.940;2023-10-31T04:35:51;7.93;;;7.07;;
54983;SDS011;40884;53.562;9.940;2023-10-31T04:36:51;8.27;;;6.60;;
54983;SDS011;40884;53.562;9.940;2023-10-31T04:37:51;9.23;;;7.13;;
54983;SDS011;40884;53.562;9.940;2023-10-31T04:38:51;7.27;;;6.57;;
54983;SDS011;40884;53.562;9.940;2023-10-31T04:39:51;9.57;;;6.97;;
54983;SDS011;40884;53.562;9.940;2023-10-31T04:40:51;8.30;;;7.37;;
54983;SDS011;40884;53.562;9.940;2023-10-31T04:41:51;9.13;;;7.83;;
54983;SDS011;40884;53.562;9.940;2023-10-31T04:42:51;8.17;;;7.27;;
54983;SDS011;40884;53.562;9.940;2023-10-31T04:43:52;8.80;;;8.00;;
54983;SDS011;40884;53.562;9.940;2023-10-31T04:44:52;8.70;;;7.80;;
54983;SDS011;40884;53.562;9.940;2023-10-31T04:45:52;7.93;;;7.13;;
54983;SDS011;40884;53.562;9.940;2023-10-31T04:46:52;8.00;;;7.20;;
54983;SDS011;40884;53.562;9.940;2023-10-31T04:47:53;8.77;;;7.80;;
54983;SDS011;40884;53.562;9.940;2023-10-31T04:48:53;8.60;;;7.40;;
54983;SDS011;40884;53.562;9.940;2023-10-31T04:49:53;9.10;;;8.20;;
54983;SDS011;40884;53.562;9.940;2023-10-31T04:50:53;10.23;;;8.57;;
54983;SDS011;40884;53.562;9.940;2023-10-31T04:51:53;8.80;;;7.90;;
54983;SDS011;40884;53.562;9.940;2023-10-31T04:52:53;8.70;;;7.80;;
54983;SDS011;40884;53.562;9.940;2023-10-31T04:53:53;9.17;;;7.77;;
54983;SDS011;40884;53.562;9.940;2023-10-31T04:54:53;7.00;;;6.20;;
54983;SDS011;40884;53.562;9.940;2023-10-31T04:55:54;8.57;;;7.67;;
54983;SDS011;40884;53.562;9.940;2023-10-31T04:56:54;8.73;;;7.83;;
54983;SDS011;40884;53.562;9.940;2023-10-31T04:57:54;9.63;;;8.63;;
54983;SDS011;40884;53.562;9.940;2023-10-31T04:58:54;8.93;;;8.03;;
54983;SDS011;40884;53.562;9.940;2023-10-31T04:59:54;8.47;;;7.30;;
54983;SDS011;40884;53.562;9.940;2023-10-31T05:00:54;7.43;;;6.70;;
54983;SDS011;40884;53.562;9.940;2023-10-31T05:01:54;10.40;;;7.63;;
54983;SDS011;40884;53.562;9.940;2023-10-31T05:02:54;7.30;;;6.60;;
54983;SDS011;40884;53.562;9.940;2023-10-31T05:03:55;9.90;;;7.40;;
54983;SDS011;40884;53.562;9.940;2023-10-31T05:04:55;10.13;;;7.90;;
54983;SDS011;40884;53.562;9.940;2023-10-31T05:05:55;9.40;;;8.40;;
54983;SDS011;40884;53.562;9.940;2023-10-31T05:06:55;9.00;;;7.83;;
54983;SDS011;40884;53.562;9.940;2023-10-31T05:07:55;9.17;;;8.10;;
54983;SDS011;40884;53.562;9.940;2023-10-31T05:08:55;7.77;;;6.07;;
54983;SDS011;40884;53.562;9.940;2023-10-31T05:09:55;8.73;;;7.90;;
54983;SDS011;40884;53.562;9.940;2023-10-31T05:10:56;8.33;;;7.63;;
54983;SDS011;40884;53.562;9.940;2023-10-31T05:11:56;9.00;;;8.10;;
54983;SDS011;40884;53.562;9.940;2023-10-31T05:12:56;8.70;;;7.80;;
54983;SDS011;40884;53.562;9.940;2023-10-31T05:13:56;9.23;;;8.33;;
54983;SDS011;40884;53.562;9.940;2023-10-31T05:14:57;7.93;;;7.13;;
54983;SDS011;40884;53.562;9.940;2023-10-31T05:15:58;9.77;;;7.40;;
54983;SDS011;40884;53.562;9.940;2023-10-31T05:16:58;9.63;;;7.53;;
54983;SDS011;40884;53.562;9.940;2023-10-31T05:17:58;9.70;;;8.70;;
54983;SDS011;40884;53.562;9.940;2023-10-31T05:18:58;9.77;;;8.77;;
54983;SDS011;40884;53.562;9.940;2023-10-31T05:19:58;8.67;;;7.87;;
54983;SDS011;40884;53.562;9.940;2023-10-31T05:20:58;9.50;;;7.97;;
54983;SDS011;40884;53.562;9.940;2023-10-31T05:21:59;8.67;;;7.77;;
54983;SDS011;40884;53.562;9.940;2023-10-31T05:22:59;9.63;;;8.20;;
54983;SDS011;40884;53.562;9.940;2023-10-31T05:23:59;9.23;;;8.33;;
54983;SDS011;40884;53.562;9.940;2023-10-31T05:24:59;9.63;;;8.57;;
54983;SDS011;40884;53.562;9.940;2023-10-31T05:25:59;9.53;;;8.53;;
54983;SDS011;40884;53.562;9.940;2023-10-31T05:26:59;9.73;;;8.73;;
54983;SDS011;40884;53.562;9.940;2023-10-31T05:28:00;10.07;;;9.07;;
54983;SDS011;40884;53.562;9.940;2023-10-31T05:29:00;8.07;;;7.23;;
54983;SDS011;40884;53.562;9.940;2023-10-31T05:30:00;9.07;;;8.17;;
54983;SDS011;40884;53.562;9.940;2023-10-31T05:31:00;9.93;;;8.50;;
54983;SDS011;40884;53.562;9.940;2023-10-31T05:32:01;10.03;;;8.47;;
54983;SDS011;40884;53.562;9.940;2023-10-31T05:33:01;9.37;;;8.47;;
54983;SDS011;40884;53.562;9.940;2023-10-31T05:34:01;9.87;;;8.60;;
54983;SDS011;40884;53.562;9.940;2023-10-31T05:35:01;10.50;;;9.00;;
54983;SDS011;40884;53.562;9.940;2023-10-31T05:36:01;11.43;;;9.57;;
54983;SDS011;40884;53.562;9.940;2023-10-31T05:37:01;12.23;;;9.47;;
54983;SDS011;40884;53.562;9.940;2023-10-31T05:38:01;9.47;;;8.57;;
54983;SDS011;40884;53.562;9.940;2023-10-31T05:39:02;10.27;;;9.07;;
54983;SDS011;40884;53.562;9.940;2023-10-31T05:40:02;11.27;;;9.63;;
54983;SDS011;40884;53.562;9.940;2023-10-31T05:41:02;10.40;;;9.40;;
54983;SDS011;40884;53.562;9.940;2023-10-31T05:42:03;11.37;;;9.90;;
54983;SDS011;40884;53.562;9.940;2023-10-31T05:43:03;10.33;;;9.30;;
54983;SDS011;40884;53.562;9.940;2023-10-31T05:44:03;9.90;;;9.00;;
54983;SDS011;40884;53.562;9.940;2023-10-31T05:45:03;11.30;;;10.13;;
54983;SDS011;40884;53.562;9.940;2023-10-31T05:46:03;10.77;;;9.67;;
54983;SDS011;40884;53.562;9.940;2023-10-31T05:47:04;10.70;;;9.60;;
54983;SDS011;40884;53.562;9.940;2023-10-31T05:48:04;9.87;;;8.87;;
54983;SDS011;40884;53.562;9.940;2023-10-31T05:49:04;10.40;;;9.30;;
54983;SDS011;40884;53.562;9.940;2023-10-31T05:50:06;13.50;;;11.03;;
54983;SDS011;40884;53.562;9.940;2023-10-31T05:51:13;12.50;;;10.50;;
54983;SDS011;40884;53.562;9.940;2023-10-31T05:52:13;10.83;;;9.43;;
54983;SDS011;40884;53.562;9.940;2023-10-31T05:53:13;12.10;;;10.37;;
54983;SDS011;40884;53.562;9.940;2023-10-31T05:54:13;11.57;;;10.43;;
54983;SDS011;40884;53.562;9.940;2023-10-31T05:55:13;10.83;;;9.73;;
54983;SDS011;40884;53.562;9.940;2023-10-31T05:56:14;9.17;;;8.23;;
54983;SDS011;40884;53.562;9.940;2023-10-31T05:57:14;12.70;;;10.53;;
54983;SDS011;40884;53.562;9.940;2023-10-31T05:58:14;12.33;;;10.47;;
54983;SDS011;40884;53.562;9.940;2023-10-31T05:59:14;11.83;;;10.50;;